Haymarket, VA (20169)

2:40 AM EDT on July 01, 2015 (GMT -0400)
Evergreen Country Club | | Change Station
CLOSE
Current Station
Personal Weather Station
Location: Haymarket, VA
Elevation: 436 ft
Nearby Weather Stations

Elev 436 ft 38.88 °N, 77.66 °W | Updated 37 seconds ago

Overcast
Overcast
66.1 °F
Feels Like 66.1 °F
N
0.0
Wind Variable Wind from WNW
Gusts 0.0 mph

Today
High -- | Low -- °F
--% Chance of Precip.
Yesterday
High -- | Low -- °F
Precip. -- in
5:48 AM 8:39 PM
Waxing Gibbous, 99% visible
Pressure 29.83 in
Visibility 8.0 miles
Clouds Few 6500 ft
Scattered Clouds 10000 ft
Overcast 13000 ft
Dew Point 65 °F
Humidity 95%
Rainfall 0.11 in
Snow Depth Not available.
UV 0 out of 12
Pollen 3.80 out of 12
Air Quality Not available.
Flu Activity Not available.
METAR KIAD 010552Z 17005KT 8SM -RA FEW065 SCT100 OVC130 19/18 A2984 RMK AO2 TSE51 SLP102 TS MOV E OCNL LTG DSNT E-SE P0007 60016 T01890178 10267 20189 53008

More Conditions Fewer Conditions

Pressure 29.83 in
Visibility 8.0 miles
Clouds Few 6500 ft
Scattered Clouds 10000 ft
Overcast 13000 ft
Dew Point 65 °F
Humidity 95%
Rainfall 0.11 in
Snow Depth Not available.
UV 0 out of 12
Pollen 3.80 out of 12
Air Quality Not available.
Flu Activity Not available.
METAR KIAD 010552Z 17005KT 8SM -RA FEW065 SCT100 OVC130 19/18 A2984 RMK AO2 TSE51 SLP102 TS MOV E OCNL LTG DSNT E-SE P0007 60016 T01890178 10267 20189 53008

More Conditions Fewer Conditions

10-Day Weather Forecast

×

Almanac

Astronomy

Jul. 01, 2015 Rise Set
Actual Time
Civil Twilight
Nautical Twilight
Astronomical Twilight
Moon
Length of Visible Light
Length of Day
Tomorrow will be .
, % of the Moon is Illuminated

Today's Extremes

State Highs State Lows

Community

WunderPhotos

Upload Photos

1,834,162 photos uploaded!

WunderBlogs® & News

Nearby

Air Quality

  Air Quality AQ Index Pollutant
Not available.

Snow Depth

Station Depth Elevation

Earthquake Activity

City Distance Mag. Time & Date
Minimum magnitude displayed is 2.5.

Coastal Water Temperatures

Place Temperature

Stations

Nearby Weather Stations

Station Location Temp. Windchill Dew Point Humidity Wind Precip. Elev Updated Type